Time;durP1;ratioP1;P1;durP2;ratioP2;P2;SDS_P1;SDS_P2;PMS_P1;PMS_P2;Temp;Humidity;BMP_temperature;BMP_pressure;BME280_temperature;BME280_humidity;BME280_pressure;Samples;Min_cycle;Max_cycle;Signal;HPM_P1;HPM_P2
2022/01/03 00:00:38;;;;;;;15.65;11.30;;;12.10;96.70;;;;;;5076522;28;20045;-73
2022/01/03 00:03:10;;;;;;;14.38;11.10;;;12.10;96.70;;;;;;5088099;28;20098;-73
2022/01/03 00:05:39;;;;;;;12.10;10.45;;;12.10;96.70;;;;;;5078772;28;20044;-73
2022/01/03 00:08:07;;;;;;;14.55;11.18;;;12.10;96.70;;;;;;5083264;28;20036;-73
2022/01/03 00:10:35;;;;;;;12.15;9.75;;;12.10;96.70;;;;;;5077006;28;20048;-73
2022/01/03 00:13:05;;;;;;;13.13;9.68;;;12.10;96.70;;;;;;5074786;28;20148;-73
2022/01/03 00:15:33;;;;;;;11.50;8.82;;;12.10;96.70;;;;;;5080616;28;20072;-73
2022/01/03 00:18:01;;;;;;;11.07;8.25;;;12.10;96.70;;;;;;5075205;28;20098;-73
2022/01/03 00:20:30;;;;;;;9.27;7.70;;;12.10;96.70;;;;;;5081385;28;20044;-73
2022/01/03 00:23:02;;;;;;;8.70;7.40;;;12.10;96.70;;;;;;5075562;28;20579;-73
2022/01/03 00:25:35;;;;;;;10.05;8.05;;;12.10;96.70;;;;;;5077459;28;20448;-73
2022/01/03 00:28:11;;;;;;;9.43;7.10;;;12.20;96.70;;;;;;5073198;28;20059;-73
2022/01/03 00:30:39;;;;;;;8.65;7.18;;;12.20;96.70;;;;;;5072732;28;20117;-73
2022/01/03 00:33:08;;;;;;;9.38;6.57;;;12.20;96.70;;;;;;5075166;28;20524;-73
2022/01/03 00:35:40;;;;;;;11.35;6.78;;;12.20;96.70;;;;;;5083388;28;20055;-73
2022/01/03 00:38:09;;;;;;;9.38;7.00;;;12.20;96.70;;;;;;5068558;28;20159;-73
2022/01/03 00:40:39;;;;;;;9.32;7.20;;;12.10;96.70;;;;;;5077517;28;20549;-73
2022/01/03 00:43:07;;;;;;;8.35;7.03;;;12.10;96.70;;;;;;5069363;28;20159;-73
2022/01/03 00:45:35;;;;;;;11.68;7.78;;;12.10;96.70;;;;;;5077936;28;20414;-73
2022/01/03 00:48:06;;;;;;;9.95;7.72;;;12.10;96.70;;;;;;5074944;28;20147;-73
2022/01/03 00:50:35;;;;;;;9.80;7.47;;;12.10;96.70;;;;;;5076783;28;20040;-73
2022/01/03 00:53:04;;;;;;;10.23;7.45;;;12.10;96.70;;;;;;5072715;28;20028;-73
2022/01/03 00:55:32;;;;;;;10.63;7.90;;;12.10;96.70;;;;;;5071126;28;20110;-73
2022/01/03 00:58:06;;;;;;;9.50;7.88;;;12.10;96.70;;;;;;5070382;28;20069;-73
2022/01/03 01:00:36;;;;;;;10.13;7.38;;;12.10;96.70;;;;;;5069487;28;20131;-73
2022/01/03 01:03:10;;;;;;;9.88;7.03;;;12.10;96.70;;;;;;5072784;28;20047;-73
2022/01/03 01:05:41;;;;;;;10.75;7.20;;;12.10;96.70;;;;;;5069222;28;20048;-73
2022/01/03 01:08:11;;;;;;;8.43;7.20;;;12.10;96.70;;;;;;5072796;28;20047;-73
2022/01/03 01:10:41;;;;;;;7.72;6.30;;;12.10;96.70;;;;;;5071087;28;20123;-73
2022/01/03 01:13:11;;;;;;;15.55;7.65;;;12.10;96.70;;;;;;5070015;28;20028;-73
2022/01/03 01:15:41;;;;;;;9.30;7.35;;;12.10;96.70;;;;;;5073172;28;20056;-73
2022/01/03 01:18:11;;;;;;;8.82;7.00;;;12.10;96.70;;;;;;5071474;28;20051;-73
2022/01/03 01:20:40;;;;;;;8.75;6.68;;;12.10;96.70;;;;;;5056145;28;20570;-73
2022/01/03 01:23:12;;;;;;;9.77;7.38;;;12.10;96.70;;;;;;5061073;28;20040;-73
2022/01/03 01:28:13;;;;;;;10.10;7.43;;;12.10;96.70;;;;;;5073057;28;21246;-73
2022/01/03 01:30:42;;;;;;;9.65;8.15;;;12.10;96.70;;;;;;5064619;28;20040;-73
2022/01/03 01:33:11;;;;;;;9.25;8.05;;;12.10;96.70;;;;;;5073016;28;20142;-73
2022/01/03 01:35:50;;;;;;;9.73;7.25;;;12.10;96.70;;;;;;5079770;28;20173;-73
2022/01/03 01:38:23;;;;;;;11.07;8.02;;;12.10;96.70;;;;;;5092722;28;20109;-73
2022/01/03 01:40:57;;;;;;;11.60;7.95;;;12.00;96.70;;;;;;5052232;28;20064;-73
2022/01/03 01:43:32;;;;;;;;;;;12.00;96.70;;;;;;5073012;28;20042;-73
2022/01/03 01:46:02;;;;;;;9.52;7.72;;;12.00;96.70;;;;;;5072500;28;20297;-73
2022/01/03 01:48:34;;;;;;;9.40;7.68;;;12.00;96.70;;;;;;5079512;28;20539;-73
2022/01/03 01:51:07;;;;;;;9.23;7.85;;;12.00;96.70;;;;;;5069031;28;20044;-73
2022/01/03 01:53:41;;;;;;;10.93;7.60;;;12.00;96.70;;;;;;5076745;28;20055;-73
2022/01/03 01:56:15;;;;;;;9.85;7.55;;;12.00;96.70;;;;;;5059207;28;20045;-73
2022/01/03 01:59:08;;;;;;;9.65;7.82;;;12.00;96.70;;;;;;5071183;28;20106;-73
2022/01/03 02:01:59;;;;;;;8.25;6.80;;;12.00;96.70;;;;;;5092555;28;20538;-73
2022/01/03 02:04:33;;;;;;;10.73;7.63;;;12.00;96.70;;;;;;5078766;28;20064;-73
2022/01/03 02:07:26;;;;;;;13.55;8.25;;;12.00;96.70;;;;;;5079975;28;20498;-73
2022/01/03 02:10:06;;;;;;;10.35;8.27;;;12.00;96.70;;;;;;5078004;28;20048;-73
2022/01/03 02:12:38;;;;;;;10.20;8.20;;;12.00;96.70;;;;;;5081455;28;20105;-73
2022/01/03 02:15:11;;;;;;;10.65;8.75;;;12.00;96.70;;;;;;5067106;28;20040;-73
2022/01/03 02:17:40;;;;;;;10.90;8.00;;;12.00;96.70;;;;;;5075916;28;20048;-73
2022/01/03 02:20:13;;;;;;;10.77;8.70;;;12.10;96.70;;;;;;5078503;28;20052;-73
2022/01/03 02:22:43;;;;;;;9.85;8.30;;;12.10;96.70;;;;;;5069636;28;20079;-73
2022/01/03 02:25:18;;;;;;;10.88;8.18;;;12.10;96.70;;;;;;5072494;28;20054;-73
2022/01/03 02:27:50;;;;;;;10.60;8.45;;;12.10;96.70;;;;;;5065763;28;20048;-73
2022/01/03 02:30:20;;;;;;;9.55;7.90;;;12.00;96.70;;;;;;5074025;28;20036;-73
2022/01/03 02:32:48;;;;;;;10.00;8.80;;;12.10;96.70;;;;;;5078847;28;20566;-73
2022/01/03 02:35:18;;;;;;;11.25;8.57;;;12.10;96.70;;;;;;5072914;28;20044;-73
2022/01/03 02:37:47;;;;;;;11.38;8.32;;;12.10;96.70;;;;;;5068445;28;20139;-73
2022/01/03 02:40:19;;;;;;;9.55;7.75;;;12.10;96.70;;;;;;5078737;28;20097;-73
2022/01/03 02:42:50;;;;;;;9.73;7.85;;;12.10;96.70;;;;;;5071869;28;20044;-73
2022/01/03 02:45:22;;;;;;;9.07;7.63;;;12.10;96.70;;;;;;5072527;28;20097;-73
2022/01/03 02:47:54;;;;;;;15.23;9.32;;;12.10;96.70;;;;;;5065515;28;20052;-73
2022/01/03 02:50:27;;;;;;;9.57;8.13;;;12.10;96.70;;;;;;5072089;28;20044;-72
2022/01/03 02:52:55;;;;;;;9.50;7.22;;;12.10;96.70;;;;;;5064667;28;20040;-72
2022/01/03 02:55:26;;;;;;;8.60;7.18;;;12.10;96.70;;;;;;5060962;28;20043;-71
2022/01/03 02:57:56;;;;;;;9.18;6.80;;;12.10;96.70;;;;;;5069091;28;20074;-72
2022/01/03 03:00:29;;;;;;;11.27;7.68;;;12.10;96.70;;;;;;5071996;28;20040;-71
2022/01/03 03:02:57;;;;;;;10.45;6.85;;;12.10;96.70;;;;;;5069643;28;20379;-72
2022/01/03 03:05:28;;;;;;;8.27;6.57;;;12.10;96.70;;;;;;5056268;28;20102;-72
2022/01/03 03:07:56;;;;;;;9.82;7.30;;;12.10;96.70;;;;;;5060302;28;20060;-72
2022/01/03 03:10:26;;;;;;;10.43;7.50;;;12.10;96.70;;;;;;5061631;28;20252;-72
2022/01/03 03:12:58;;;;;;;8.20;7.05;;;12.10;96.70;;;;;;5060541;28;20103;-72
2022/01/03 03:15:28;;;;;;;10.27;7.53;;;12.10;96.70;;;;;;5070294;28;20045;-71
2022/01/03 03:17:56;;;;;;;9.35;7.32;;;12.10;96.70;;;;;;5077969;28;20040;-72
2022/01/03 03:20:27;;;;;;;8.88;7.10;;;12.10;96.70;;;;;;5083389;28;20048;-72
2022/01/03 03:22:57;;;;;;;7.93;6.85;;;12.10;96.70;;;;;;5080823;28;20044;-72
2022/01/03 03:25:28;;;;;;;8.77;7.28;;;12.10;96.70;;;;;;5074020;28;20590;-72
2022/01/03 03:28:00;;;;;;;8.32;6.88;;;12.10;96.70;;;;;;5073022;28;20142;-72
2022/01/03 03:30:31;;;;;;;9.25;6.72;;;12.10;96.70;;;;;;5068040;28;20040;-72
2022/01/03 03:33:04;;;;;;;10.60;7.28;;;12.10;96.70;;;;;;5073303;28;20048;-72
2022/01/03 03:35:35;;;;;;;9.25;6.93;;;12.10;96.70;;;;;;5094170;28;20105;-72
2022/01/03 03:38:04;;;;;;;9.48;7.53;;;12.10;96.70;;;;;;5064526;28;20076;-72
2022/01/03 03:40:32;;;;;;;9.98;7.15;;;12.10;96.70;;;;;;5067099;28;20091;-72
2022/01/03 03:43:00;;;;;;;8.82;7.03;;;12.10;96.70;;;;;;5074986;28;20069;-72
2022/01/03 03:45:29;;;;;;;8.57;7.13;;;12.10;96.70;;;;;;5057514;28;20037;-72
2022/01/03 03:47:57;;;;;;;10.00;7.97;;;12.10;96.70;;;;;;5078010;28;20048;-72
2022/01/03 03:50:25;;;;;;;9.35;7.32;;;12.10;96.70;;;;;;5075307;28;20074;-72
2022/01/03 03:52:57;;;;;;;9.70;7.25;;;12.10;96.70;;;;;;5079644;28;20060;-72
2022/01/03 03:55:27;;;;;;;8.77;7.38;;;12.10;96.70;;;;;;5061264;28;20048;-72
2022/01/03 03:57:57;;;;;;;10.50;7.60;;;12.10;96.70;;;;;;5061955;28;20048;-72
2022/01/03 04:00:25;;;;;;;8.10;6.70;;;12.10;96.70;;;;;;5073375;28;20052;-72
2022/01/03 04:02:58;;;;;;;10.38;7.47;;;12.10;96.70;;;;;;5070538;28;20494;-72
2022/01/03 04:05:27;;;;;;;8.40;7.13;;;12.10;96.70;;;;;;5072773;28;20048;-72
2022/01/03 04:07:57;;;;;;;9.65;7.05;;;12.10;96.70;;;;;;5072323;28;20056;-72
2022/01/03 04:10:26;;;;;;;8.38;6.57;;;12.10;96.70;;;;;;5072779;28;20048;-72
2022/01/03 04:12:54;;;;;;;9.20;6.82;;;12.10;96.70;;;;;;5071369;28;20055;-72
2022/01/03 04:15:22;;;;;;;9.02;6.68;;;12.10;96.70;;;;;;5079425;28;20043;-72
2022/01/03 04:17:53;;;;;;;9.68;7.38;;;12.10;96.70;;;;;;5072667;28;20040;-72
2022/01/03 04:20:22;;;;;;;12.48;7.72;;;12.20;96.70;;;;;;5079897;28;20076;-72
2022/01/03 04:22:50;;;;;;;9.23;7.15;;;12.10;96.70;;;;;;5081151;28;20032;-72
2022/01/03 04:25:19;;;;;;;10.13;7.05;;;12.10;96.70;;;;;;5074982;28;20044;-72
2022/01/03 04:27:48;;;;;;;9.23;7.47;;;12.10;96.70;;;;;;5078723;28;20558;-72
2022/01/03 04:30:16;;;;;;;9.45;6.18;;;12.10;96.70;;;;;;5077039;28;20133;-71
2022/01/03 04:32:44;;;;;;;10.15;6.50;;;12.00;96.70;;;;;;5097287;28;20040;-72
2022/01/03 04:35:12;;;;;;;10.32;6.45;;;12.00;96.70;;;;;;5076588;28;20048;-72
2022/01/03 04:37:40;;;;;;;7.43;5.70;;;12.00;96.70;;;;;;5066519;28;20043;-72
2022/01/03 04:40:09;;;;;;;11.75;6.30;;;12.10;96.70;;;;;;5075477;28;20067;-72
2022/01/03 04:42:39;;;;;;;8.38;5.93;;;12.10;96.70;;;;;;5068676;28;20495;-72
2022/01/03 04:45:08;;;;;;;9.05;6.45;;;12.10;96.70;;;;;;5080462;28;20046;-72
2022/01/03 04:47:36;;;;;;;8.98;6.80;;;12.10;96.70;;;;;;5069448;28;20040;-72
2022/01/03 04:50:05;;;;;;;9.35;6.47;;;12.10;96.70;;;;;;5078454;28;20040;-72
2022/01/03 04:52:33;;;;;;;8.98;6.18;;;12.10;96.70;;;;;;5071039;28;20493;-72
2022/01/03 04:55:02;;;;;;;10.40;6.82;;;12.10;96.70;;;;;;5077570;28;20089;-72
2022/01/03 04:57:31;;;;;;;10.45;6.88;;;12.10;96.70;;;;;;5071212;28;20036;-72
2022/01/03 05:00:00;;;;;;;11.50;7.05;;;12.10;96.70;;;;;;5079968;28;20044;-72
2022/01/03 05:02:31;;;;;;;9.18;7.07;;;12.10;96.70;;;;;;5073004;28;20044;-72
2022/01/03 05:05:01;;;;;;;8.93;6.72;;;12.10;96.70;;;;;;5058558;28;20121;-72
2022/01/03 05:07:29;;;;;;;10.25;6.60;;;12.20;96.70;;;;;;5074230;28;20044;-72
2022/01/03 05:09:57;;;;;;;9.80;6.90;;;12.20;96.70;;;;;;5078088;28;20041;-72
2022/01/03 05:12:25;;;;;;;12.90;7.28;;;12.10;96.70;;;;;;5060808;28;20051;-72
2022/01/03 05:14:53;;;;;;;8.95;7.15;;;12.10;96.70;;;;;;5058315;28;20505;-72
2022/01/03 05:17:23;;;;;;;11.52;6.82;;;12.10;96.70;;;;;;5071138;28;20046;-72
2022/01/03 05:19:51;;;;;;;9.68;6.82;;;12.00;96.70;;;;;;5064035;28;20054;-72
2022/01/03 05:22:19;;;;;;;10.18;7.10;;;12.00;96.70;;;;;;5071576;28;20516;-72
2022/01/03 05:24:48;;;;;;;9.32;6.30;;;12.00;96.70;;;;;;5074760;28;20040;-72
2022/01/03 05:27:16;;;;;;;10.07;6.65;;;12.00;96.70;;;;;;5062826;28;20464;-72
2022/01/03 05:29:46;;;;;;;8.95;6.57;;;12.00;96.70;;;;;;5082205;28;20036;-72
2022/01/03 05:32:13;;;;;;;9.50;6.50;;;12.10;96.70;;;;;;5074653;28;20048;-72
2022/01/03 05:34:43;;;;;;;11.18;7.57;;;12.10;96.70;;;;;;5065954;28;20075;-72
2022/01/03 05:37:13;;;;;;;9.07;7.00;;;12.10;96.70;;;;;;5070943;28;20048;-72
2022/01/03 05:39:42;;;;;;;8.25;6.82;;;12.10;96.70;;;;;;5069910;28;20109;-72
2022/01/03 05:42:10;;;;;;;10.07;6.80;;;12.10;96.70;;;;;;5071065;28;20047;-72
2022/01/03 05:44:39;;;;;;;9.32;6.85;;;12.10;96.70;;;;;;5071469;28;20473;-72
2022/01/03 05:47:07;;;;;;;10.98;6.38;;;12.10;96.70;;;;;;5061283;28;20064;-72
2022/01/03 05:49:35;;;;;;;8.02;6.50;;;12.20;96.70;;;;;;5068800;28;20387;-72
2022/01/03 05:52:05;;;;;;;9.95;6.35;;;12.20;96.70;;;;;;5073857;28;20055;-72
2022/01/03 05:54:34;;;;;;;9.05;6.60;;;12.20;96.70;;;;;;5081258;28;20043;-72
2022/01/03 05:57:02;;;;;;;9.68;7.10;;;12.20;96.70;;;;;;5071437;28;20049;-72
2022/01/03 05:59:31;;;;;;;10.75;5.88;;;12.20;96.70;;;;;;5065280;28;20048;-72
2022/01/03 06:01:59;;;;;;;8.52;6.38;;;12.20;96.70;;;;;;5071117;28;20075;-72
2022/01/03 06:04:40;;;;;;;7.35;6.30;;;12.20;96.70;;;;;;5081573;28;20044;-72
2022/01/03 06:07:12;;;;;;;9.88;7.65;;;12.20;96.70;;;;;;5068381;28;20497;-72
2022/01/03 06:09:44;;;;;;;13.57;7.18;;;12.20;96.70;;;;;;5067387;28;20678;-72
2022/01/03 06:12:14;;;;;;;10.30;7.70;;;12.20;96.70;;;;;;5078373;28;20044;-72
2022/01/03 06:14:49;;;;;;;10.73;8.32;;;12.20;96.70;;;;;;5067979;28;20445;-72
2022/01/03 06:17:19;;;;;;;11.32;7.50;;;12.20;96.70;;;;;;5065702;28;20060;-72
2022/01/03 06:19:49;;;;;;;11.15;7.90;;;12.20;96.70;;;;;;5071878;28;20523;-72
2022/01/03 06:22:18;;;;;;;10.77;7.50;;;12.20;96.70;;;;;;5058649;28;20403;-72
2022/01/03 06:24:52;;;;;;;7.97;7.18;;;12.20;96.70;;;;;;5076436;28;20043;-72
2022/01/03 06:27:20;;;;;;;11.52;8.45;;;12.20;96.70;;;;;;5078856;28;20052;-72
2022/01/03 06:29:48;;;;;;;11.25;7.63;;;12.20;96.70;;;;;;5070471;28;20048;-72
2022/01/03 06:32:16;;;;;;;10.00;7.35;;;12.20;96.70;;;;;;5069775;28;20046;-72
2022/01/03 06:34:44;;;;;;;10.32;7.38;;;12.20;96.70;;;;;;5091171;27;20032;-72
2022/01/03 06:37:13;;;;;;;11.07;7.68;;;12.20;96.70;;;;;;5074963;28;20072;-72
2022/01/03 06:39:55;;;;;;;8.93;7.00;;;12.20;96.70;;;;;;5070652;28;20048;-72
2022/01/03 06:42:23;;;;;;;10.25;7.95;;;12.20;96.70;;;;;;5071106;28;20072;-72
2022/01/03 06:44:51;;;;;;;8.73;6.93;;;12.20;96.70;;;;;;5070049;28;20044;-72
2022/01/03 06:47:22;;;;;;;10.35;7.68;;;12.20;96.70;;;;;;5082598;28;20044;-72
2022/01/03 06:49:50;;;;;;;10.73;7.55;;;12.30;96.70;;;;;;5074688;28;20093;-72
2022/01/03 06:52:18;;;;;;;10.85;8.23;;;12.30;96.70;;;;;;5068274;28;20063;-73
2022/01/03 06:54:46;;;;;;;10.23;7.60;;;12.20;96.70;;;;;;5077099;28;20143;-72
2022/01/03 06:57:16;;;;;;;9.93;7.68;;;12.20;96.70;;;;;;5075537;28;20045;-72
2022/01/03 06:59:46;;;;;;;9.90;7.13;;;12.20;96.70;;;;;;5064233;28;20059;-72
2022/01/03 07:02:14;;;;;;;11.45;7.95;;;12.20;96.70;;;;;;5083919;28;20052;-72
2022/01/03 07:04:42;;;;;;;9.15;7.47;;;12.20;96.70;;;;;;5081917;28;20034;-72
2022/01/03 07:07:10;;;;;;;9.73;7.45;;;12.20;96.70;;;;;;5086497;28;20036;-71
2022/01/03 07:09:39;;;;;;;11.48;7.43;;;12.20;96.70;;;;;;5082080;28;20066;-72
2022/01/03 07:12:08;;;;;;;11.43;8.50;;;12.20;96.70;;;;;;5074800;28;20350;-72
2022/01/03 07:19:55;;;;;;;9.65;7.70;;;12.30;96.70;;;;;;5073308;28;20040;-72
2022/01/03 07:22:24;;;;;;;13.52;8.30;;;12.30;96.70;;;;;;5078333;28;20230;-72
2022/01/03 07:24:53;;;;;;;10.20;7.65;;;12.30;96.70;;;;;;5068936;28;20450;-72
2022/01/03 07:27:21;;;;;;;12.27;7.50;;;12.30;96.70;;;;;;5074840;28;20274;-72
2022/01/03 07:29:51;;;;;;;10.88;7.43;;;12.30;96.70;;;;;;5075241;28;20240;-72
2022/01/03 07:32:20;;;;;;;8.95;7.28;;;12.30;96.70;;;;;;5074076;28;20075;-72
2022/01/03 07:34:47;;;;;;;10.35;7.80;;;12.30;96.70;;;;;;5072655;28;20129;-72
2022/01/03 07:37:16;;;;;;;10.77;7.95;;;12.30;96.70;;;;;;5081086;28;20440;-72
2022/01/03 07:39:44;;;;;;;10.50;7.90;;;12.30;96.70;;;;;;5071808;28;20037;-72
2022/01/03 07:42:12;;;;;;;9.57;7.75;;;12.30;96.70;;;;;;5084764;28;20040;-72
2022/01/03 07:44:45;;;;;;;10.77;7.80;;;12.30;96.70;;;;;;5070750;28;20048;-72
2022/01/03 07:47:14;;;;;;;10.15;8.35;;;12.30;96.70;;;;;;5067573;28;20048;-72
2022/01/03 07:49:42;;;;;;;11.93;8.32;;;12.30;96.70;;;;;;5074496;28;20139;-72
2022/01/03 07:52:10;;;;;;;12.80;7.80;;;12.30;96.70;;;;;;5080300;28;20067;-72
2022/01/03 07:54:38;;;;;;;14.20;9.45;;;12.40;96.70;;;;;;5076756;28;20041;-72
2022/01/03 07:57:06;;;;;;;14.15;10.27;;;12.30;96.70;;;;;;5077053;28;20063;-72
2022/01/03 07:59:34;;;;;;;12.77;8.75;;;12.30;96.70;;;;;;5074980;28;20078;-72
2022/01/03 08:02:03;;;;;;;9.95;7.57;;;12.30;96.70;;;;;;5081097;28;20036;-72
2022/01/03 08:04:33;;;;;;;9.68;7.40;;;12.30;96.70;;;;;;5069636;28;20036;-72
2022/01/03 08:07:01;;;;;;;9.55;6.75;;;12.30;96.70;;;;;;5079827;28;20044;-72
2022/01/03 08:09:29;;;;;;;10.73;7.10;;;12.30;96.70;;;;;;5079592;28;20091;-72
2022/01/03 08:11:58;;;;;;;11.25;7.45;;;12.20;96.70;;;;;;5080956;28;20055;-72
2022/01/03 08:14:27;;;;;;;21.13;15.30;;;12.20;96.70;;;;;;5077346;28;20054;-72
2022/01/03 08:16:55;;;;;;;14.10;11.32;;;12.30;96.70;;;;;;5077975;28;20526;-72
2022/01/03 08:19:23;;;;;;;14.80;8.65;;;12.20;96.70;;;;;;5058422;28;20032;-72
2022/01/03 08:21:53;;;;;;;11.02;7.40;;;12.30;96.70;;;;;;5070557;28;20098;-71
2022/01/03 08:24:21;;;;;;;13.80;8.63;;;12.30;96.70;;;;;;5071246;28;20462;-72
2022/01/03 08:26:49;;;;;;;11.20;8.38;;;12.30;96.70;;;;;;5079127;28;20131;-72
2022/01/03 08:29:17;;;;;;;10.93;7.65;;;12.30;96.70;;;;;;5084111;28;20044;-72
2022/01/03 08:31:45;;;;;;;12.45;7.80;;;12.30;96.70;;;;;;5074949;28;20051;-72
2022/01/03 08:34:13;;;;;;;16.15;9.85;;;12.40;96.70;;;;;;5075296;28;20032;-72
2022/01/03 08:36:41;;;;;;;17.17;10.77;;;12.40;96.70;;;;;;5074152;28;20516;-72
2022/01/03 08:39:11;;;;;;;18.92;10.95;;;12.40;96.70;;;;;;5081531;28;20051;-72
2022/01/03 08:41:39;;;;;;;14.52;9.55;;;12.40;96.70;;;;;;5078381;28;20044;-72
2022/01/03 08:44:08;;;;;;;14.23;9.50;;;12.40;96.70;;;;;;5069333;28;20044;-72
2022/01/03 08:46:36;;;;;;;11.23;7.57;;;12.40;96.70;;;;;;5080737;28;20039;-72
2022/01/03 08:49:04;;;;;;;12.32;7.55;;;12.40;96.70;;;;;;5069767;28;20127;-72
2022/01/03 08:51:33;;;;;;;13.30;7.93;;;12.40;96.70;;;;;;5080832;28;20120;-72
2022/01/03 08:54:01;;;;;;;9.75;7.07;;;12.40;96.70;;;;;;5074160;28;20043;-72
2022/01/03 08:56:31;;;;;;;12.65;8.65;;;12.50;96.70;;;;;;5071738;28;20117;-72
2022/01/03 08:58:59;;;;;;;12.07;7.97;;;12.50;96.70;;;;;;5077719;28;20040;-72
2022/01/03 09:01:27;;;;;;;13.48;8.63;;;12.50;96.70;;;;;;5066968;28;20045;-72
2022/01/03 09:03:55;;;;;;;10.52;7.45;;;12.50;96.70;;;;;;5072190;28;20163;-72
2022/01/03 09:06:23;;;;;;;11.45;8.63;;;12.50;96.70;;;;;;5080598;28;20382;-72
2022/01/03 09:08:51;;;;;;;11.60;7.80;;;12.50;96.70;;;;;;5079594;28;20040;-72
2022/01/03 09:11:19;;;;;;;9.27;7.65;;;12.50;96.70;;;;;;5068870;28;20499;-72
2022/01/03 09:13:49;;;;;;;9.85;8.07;;;12.50;96.70;;;;;;5075107;28;20045;-72
2022/01/03 09:16:17;;;;;;;11.57;7.57;;;12.50;96.70;;;;;;5070217;28;20036;-72
2022/01/03 09:18:45;;;;;;;13.65;8.45;;;12.50;96.70;;;;;;5071132;28;20048;-72
2022/01/03 09:21:13;;;;;;;12.85;8.70;;;12.50;96.70;;;;;;5074007;28;20497;-72
2022/01/03 09:23:46;;;;;;;15.88;8.77;;;12.50;96.70;;;;;;5074810;28;20056;-72
2022/01/03 09:29:03;;;;;;;11.27;7.88;;;12.50;96.70;;;;;;5072731;28;20513;-72
2022/01/03 09:31:33;;;;;;;13.57;9.50;;;12.60;96.70;;;;;;5071982;28;20441;-71
2022/01/03 09:34:03;;;;;;;10.88;7.80;;;12.60;96.70;;;;;;5062323;28;20047;-72
2022/01/03 09:36:32;;;;;;;12.65;7.72;;;12.60;96.70;;;;;;5074524;28;20040;-72
2022/01/03 09:39:02;;;;;;;14.77;8.38;;;12.60;96.70;;;;;;5076030;28;20044;-72
2022/01/03 09:41:32;;;;;;;13.23;9.38;;;12.60;96.70;;;;;;5073906;28;20051;-72
2022/01/03 09:44:04;;;;;;;15.93;11.25;;;12.70;96.70;;;;;;5079418;28;20494;-72
2022/01/03 09:46:35;;;;;;;12.52;8.63;;;12.70;96.70;;;;;;5073149;28;20044;-72
2022/01/03 09:49:06;;;;;;;11.10;7.53;;;12.60;96.70;;;;;;5078529;28;20117;-72
2022/01/03 09:51:34;;;;;;;11.55;8.18;;;12.60;96.70;;;;;;5069930;28;20047;-72
2022/01/03 09:54:05;;;;;;;14.20;8.75;;;12.60;96.70;;;;;;5056862;28;20036;-72
2022/01/03 09:56:37;;;;;;;16.55;10.65;;;12.60;96.70;;;;;;5069871;28;20059;-72
2022/01/03 09:59:07;;;;;;;17.75;14.20;;;12.60;96.70;;;;;;5080448;28;20516;-72
2022/01/03 10:01:42;;;;;;;12.98;9.75;;;12.60;96.70;;;;;;5073628;28;20074;-72
2022/01/03 10:04:12;;;;;;;11.82;7.82;;;12.60;96.70;;;;;;5067657;28;20109;-72
2022/01/03 10:06:40;;;;;;;13.30;7.57;;;12.60;96.70;;;;;;5078302;28;20596;-72
2022/01/03 10:09:09;;;;;;;16.63;9.43;;;12.60;96.70;;;;;;5072255;28;20052;-72
2022/01/03 10:11:37;;;;;;;14.43;9.60;;;12.60;96.70;;;;;;5073417;28;20047;-72
2022/01/03 10:14:13;;;;;;;15.13;8.15;;;12.60;96.70;;;;;;5071696;28;20040;-72
2022/01/03 10:16:43;;;;;;;14.13;8.60;;;12.60;96.70;;;;;;5074998;28;20498;-72
2022/01/03 10:19:23;;;;;;;16.08;9.07;;;12.70;96.70;;;;;;5076831;28;20036;-72
2022/01/03 10:21:52;;;;;;;11.82;8.32;;;12.70;96.70;;;;;;5079925;28;20033;-72
2022/01/03 10:24:31;;;;;;;11.68;8.20;;;12.70;96.70;;;;;;5081140;28;20040;-72
2022/01/03 10:26:59;;;;;;;14.80;10.02;;;12.70;96.70;;;;;;5071921;28;20048;-72
2022/01/03 10:29:33;;;;;;;12.95;9.27;;;12.80;96.70;;;;;;5069675;28;20464;-72
2022/01/03 10:32:03;;;;;;;13.32;9.95;;;12.90;96.70;;;;;;5073864;28;20505;-72
2022/01/03 10:34:32;;;;;;;14.70;9.75;;;12.90;96.70;;;;;;5069900;28;20028;-71
2022/01/03 10:37:10;;;;;;;11.95;8.50;;;13.00;96.70;;;;;;5068227;28;20131;-72
2022/01/03 10:39:39;;;;;;;9.98;7.75;;;13.00;96.70;;;;;;5067960;28;20040;-72
2022/01/03 10:42:15;;;;;;;11.45;7.32;;;13.00;96.70;;;;;;5071765;28;20039;-72
2022/01/03 10:44:46;;;;;;;12.18;7.43;;;13.00;96.70;;;;;;5072804;28;20029;-72
2022/01/03 10:47:28;;;;;;;10.75;7.80;;;13.10;96.70;;;;;;5075252;28;20040;-72
2022/01/03 10:49:56;;;;;;;11.25;7.30;;;13.10;96.70;;;;;;5075106;28;20489;-72
2022/01/03 10:52:29;;;;;;;11.90;7.32;;;13.20;96.70;;;;;;5070636;28;20114;-72
2022/01/03 10:55:11;;;;;;;10.77;7.90;;;13.20;96.70;;;;;;5080115;28;20040;-72
2022/01/03 10:57:54;;;;;;;10.75;7.03;;;13.30;96.70;;;;;;5072744;28;20048;-72
2022/01/03 11:00:29;;;;;;;8.90;7.10;;;13.30;96.70;;;;;;5072957;28;20047;-72
2022/01/03 11:03:18;;;;;;;9.93;6.63;;;13.30;96.70;;;;;;5069228;28;20086;-72
2022/01/03 11:05:51;;;;;;;23.25;17.50;;;13.30;96.70;;;;;;5079458;28;20040;-72
2022/01/03 11:11:08;;;;;;;11.57;6.80;;;13.40;96.70;;;;;;5072599;28;20032;-72
2022/01/03 11:13:38;;;;;;;8.40;7.15;;;13.40;96.70;;;;;;5066885;28;20039;-72
2022/01/03 11:16:09;;;;;;;8.07;5.40;;;13.40;96.70;;;;;;5077925;28;20036;-72
2022/01/03 11:18:43;;;;;;;9.07;6.07;;;13.50;96.70;;;;;;5067192;28;20517;-72
2022/01/03 11:21:13;;;;;;;9.02;6.38;;;13.50;96.70;;;;;;5075000;28;20043;-72
2022/01/03 11:23:42;;;;;;;7.90;5.18;;;13.50;96.70;;;;;;5068810;28;20159;-72
2022/01/03 11:26:12;;;;;;;9.93;5.32;;;13.50;96.70;;;;;;5067166;28;20062;-72
2022/01/03 11:28:41;;;;;;;10.43;5.70;;;13.60;96.70;;;;;;5073995;28;20408;-72
2022/01/03 11:31:14;;;;;;;8.88;5.50;;;13.60;96.70;;;;;;5077691;28;20226;-72
2022/01/03 11:33:42;;;;;;;11.30;5.47;;;13.60;96.70;;;;;;5074412;28;20097;-72
2022/01/03 11:36:31;;;;;;;10.18;4.82;;;13.60;96.70;;;;;;5067343;28;20071;-72
2022/01/03 11:39:05;;;;;;;9.65;5.03;;;13.50;96.70;;;;;;5077129;28;20146;-72
2022/01/03 11:41:33;;;;;;;8.07;4.68;;;13.50;96.70;;;;;;5080960;28;20152;-72
2022/01/03 11:44:03;;;;;;;7.97;5.10;;;13.50;96.70;;;;;;5082786;28;20519;-72
2022/01/03 11:46:32;;;;;;;10.10;5.00;;;13.50;96.70;;;;;;5082642;28;20109;-72
2022/01/03 11:49:02;;;;;;;5.93;4.25;;;13.50;96.70;;;;;;5080008;28;20032;-72
2022/01/03 11:51:33;;;;;;;5.93;4.60;;;13.50;96.70;;;;;;5069827;28;20739;-72
2022/01/03 11:54:09;;;;;;;7.25;4.50;;;13.50;96.70;;;;;;5074117;28;20612;-72
2022/01/03 11:56:43;;;;;;;8.48;5.13;;;13.50;96.70;;;;;;5072842;28;20375;-72
2022/01/03 12:04:58;;;;;;;7.97;5.05;;;13.50;96.70;;;;;;5079804;28;20037;-72
2022/01/03 12:07:27;;;;;;;7.88;5.38;;;13.50;96.70;;;;;;5072893;28;20043;-72
2022/01/03 12:10:07;;;;;;;8.95;4.95;;;13.50;96.70;;;;;;5080539;28;20058;-72
2022/01/03 12:12:37;;;;;;;8.57;5.20;;;13.50;96.70;;;;;;5077368;28;20048;-72
2022/01/03 12:15:25;;;;;;;8.60;5.93;;;13.50;96.70;;;;;;5082920;28;20385;-72
2022/01/03 12:17:56;;;;;;;8.43;5.63;;;13.50;96.70;;;;;;5071376;28;20518;-72
2022/01/03 12:20:38;;;;;;;6.80;5.13;;;13.50;96.70;;;;;;5080479;28;20097;-72
2022/01/03 12:23:06;;;;;;;6.93;5.50;;;13.60;96.70;;;;;;5082226;28;20052;-72
2022/01/03 12:25:36;;;;;;;7.68;5.25;;;13.60;96.70;;;;;;5082870;28;20059;-72
2022/01/03 12:28:07;;;;;;;7.35;4.53;;;13.60;96.70;;;;;;5080183;28;20044;-72
2022/01/03 12:30:37;;;;;;;6.20;5.00;;;13.60;96.70;;;;;;5080791;28;20055;-71
2022/01/03 12:33:19;;;;;;;7.93;4.82;;;13.70;96.70;;;;;;5079150;28;20575;-72
2022/01/03 12:35:49;;;;;;;7.22;5.63;;;13.70;96.70;;;;;;5075408;28;20037;-72
2022/01/03 12:38:23;;;;;;;6.88;5.13;;;13.70;96.70;;;;;;5081105;28;20044;-72
2022/01/03 12:40:54;;;;;;;6.50;5.03;;;13.70;96.70;;;;;;5056381;28;20056;-72
2022/01/03 12:43:46;;;;;;;6.05;4.57;;;13.70;96.70;;;;;;5071624;28;20135;-72
2022/01/03 12:46:16;;;;;;;7.68;4.45;;;13.70;96.70;;;;;;5082332;28;20050;-72
2022/01/03 12:48:46;;;;;;;7.00;4.32;;;13.70;96.70;;;;;;5071376;28;20044;-72
2022/01/03 12:51:15;;;;;;;6.47;4.20;;;13.70;96.70;;;;;;5074464;28;20127;-72
2022/01/03 12:53:52;;;;;;;5.20;3.85;;;13.70;96.70;;;;;;5074346;28;20032;-72
2022/01/03 12:56:26;;;;;;;5.00;3.78;;;13.70;96.70;;;;;;5072154;28;20056;-72
2022/01/03 12:58:56;;;;;;;7.82;5.00;;;13.70;96.70;;;;;;5077239;28;20036;-72
2022/01/03 13:01:29;;;;;;;7.22;4.25;;;13.70;96.70;;;;;;5078419;28;20436;-72
2022/01/03 13:04:21;;;;;;;13.48;5.53;;;13.70;96.70;;;;;;5077230;28;20666;-72
2022/01/03 13:06:49;;;;;;;8.45;5.75;;;13.70;96.70;;;;;;5068611;28;20084;-72
2022/01/03 13:09:18;;;;;;;8.10;6.60;;;13.70;96.70;;;;;;5072226;28;20433;-72
2022/01/03 13:11:49;;;;;;;7.15;6.22;;;13.70;96.70;;;;;;5073851;28;20159;-72
2022/01/03 13:14:19;;;;;;;8.82;6.32;;;13.70;96.70;;;;;;5079753;28;20143;-72
2022/01/03 13:16:49;;;;;;;6.40;5.45;;;13.80;96.70;;;;;;5079161;28;20092;-72